Impacts TAF Board
For situational awareness. Not to be used for flight planning purposes.
IDs:

KPHX - Phoenix/Sky Harbor, AZ, US

Issued at 2320 UTC 04 Jul 2022
Updated at 0121 UTC 05 Jul 2022
Potential Impact None Slight Moderate High
Time0051Z 05/02Z 05/03Z 05/04Z 05/05Z 05/06Z 05/07Z 05/08Z 05/09Z 05/10Z 05/11Z 05/12Z 05/13Z 05/14Z>>
Type OBS PRVL
  [TEMP]  
PRVL
  [TEMP]  
PRVL PRVL PRVL PRVL PRVL PRVL PRVL PRVL PRVL PRVL PRVL
VIS 10 >6
  [>6]  
>6
  [>6]  
>6 >6 >6 >6 >6 >6 >6 >6 >6 >6 >6
CIG -- 150
  [100]  
150
  [100]  
150 150 150 150 150 150 100 100 100 100 100
Cover SCT BKN
  [BKN]  
BKN
  [BKN]  
BKN BKN BKN BKN BKN BKN BKN BKN BKN BKN BKN
FltCat VFR VFR
  [VFR]  
VFR
  [VFR]  
VFR VFR VFR VFR VFR VFR VFR VFR VFR VFR VFR
WX -- --
  [--]  
--
  [--]  
-- -- -- -- -- -- VCSH VCSH VCSH VCSH VCSH
WDir 170 VRB
[160]
VRB
[160]
VRB VRB VRB VRB VRB VRB 120 120 120 120 120
WSpd 6 6
  [8]  
6
  [8]  
6 6 6 6 6 6 5 5 5 5 5
WGst -- --
  [16]  
--
  [16]  
-- -- -- -- -- -- -- -- -- -- --
WSHgt -- --
[--]
--
[--]
-- -- -- -- -- -- -- -- -- -- --
WSDir -- --
[--]
--
[--]
-- -- -- -- -- -- -- -- -- -- --
WSSpd -- --
[--]
--
[--]
-- -- -- -- -- -- -- -- -- -- --
Raw TAF
KPHX 042320Z 0500/0606 20008G17KT P6SM SCT100 SCT150 BKN250
  FM050200 VRB06KT P6SM SCT100 BKN150 BKN250
  TEMPO 0502/0504 16008G16KT BKN100
  FM051000 12005KT P6SM VCSH BKN100 BKN150
  FM051600 VRB05KT P6SM FEW100 SCT150 SCT250
  FM052000 18008G16KT P6SM FEW250


Raw METAR
KPHX 050051Z 17006KT 10SM FEW130 SCT170 SCT250 39/13 A2973 RMK AO2 SLP046 T03940128
KPHX 042351Z 19010KT 10SM FEW100 SCT140 SCT250 39/13 A2974 RMK AO2 SLP048 T03940128 10406 20350 56018
KPHX 042251Z 21010KT 10SM FEW100 SCT140 SCT250 41/12 A2975 RMK AO2 SLP053 T04060117

METAR Board
Radar Display
Forecast Discussion
For situational awareness. Not to be used for flight planning purposes.